createdAt,value
2022-11-28T00:02:47.498Z,86.88
2022-11-28T00:05:51.590Z,87.05
2022-11-28T00:08:54.159Z,87.08
2022-11-28T00:11:57.130Z,86.97
2022-11-28T00:14:59.641Z,86.30
2022-11-28T00:18:02.690Z,86.66
2022-11-28T00:21:09.011Z,87.08
2022-11-28T00:24:12.238Z,87.14
2022-11-28T00:27:14.656Z,86.64
2022-11-28T00:30:17.808Z,85.99
2022-11-28T00:33:20.320Z,86.54
2022-11-28T00:36:23.938Z,86.47
2022-11-28T00:39:26.433Z,85.42
2022-11-28T00:42:29.460Z,85.37
2022-11-28T00:45:32.003Z,85.52
2022-11-28T00:48:36.102Z,85.45
2022-11-28T00:51:38.522Z,85.90
2022-11-28T00:54:41.839Z,86.39
2022-11-28T00:57:51.312Z,86.27
2022-11-28T01:00:54.439Z,85.48
2022-11-28T01:03:59.620Z,85.38
2022-11-28T01:07:02.687Z,84.86
2022-11-28T01:10:05.710Z,85.25
2022-11-28T01:13:09.670Z,84.88
2022-11-28T01:16:12.454Z,85.39
2022-11-28T01:19:15.519Z,85.69
2022-11-28T01:22:18.066Z,85.63
2022-11-28T01:25:21.134Z,85.49
2022-11-28T01:28:23.554Z,85.34
2022-11-28T01:31:29.313Z,85.62
2022-11-28T01:34:31.919Z,85.29
2022-11-28T01:37:35.126Z,84.81
2022-11-28T01:40:45.686Z,84.78
2022-11-28T01:44:06.675Z,84.76
2022-11-28T01:47:09.392Z,84.19
2022-11-28T01:50:13.228Z,84.39
2022-11-28T01:53:16.359Z,85.15
2022-11-28T01:56:23.653Z,84.78
2022-11-28T01:59:28.578Z,83.77
2022-11-28T02:02:54.584Z,83.87
2022-11-28T02:05:57.615Z,83.68
2022-11-28T02:09:00.463Z,84.16
2022-11-28T02:12:29.912Z,84.27
2022-11-28T02:15:47.728Z,84.12
2022-11-28T02:18:50.834Z,82.86
2022-11-28T02:22:01.043Z,83.02
2022-11-28T02:25:21.995Z,82.94
2022-11-28T02:28:55.850Z,83.01
2022-11-28T02:32:07.342Z,83.22
2022-11-28T02:35:14.018Z,83.19
2022-11-28T02:38:29.851Z,83.43
2022-11-28T02:41:44.399Z,82.47
2022-11-28T02:44:57.609Z,81.70
2022-11-28T02:48:10.768Z,82.32
2022-11-28T02:51:27.722Z,82.62
2022-11-28T02:54:31.839Z,82.86
2022-11-28T02:57:43.710Z,82.23
2022-11-28T03:00:47.900Z,82.48
2022-11-28T03:04:03.304Z,82.58
2022-11-28T03:07:32.883Z,82.65
2022-11-28T03:10:35.563Z,81.77
2022-11-28T03:13:53.830Z,82.38
2022-11-28T03:16:59.219Z,82.59
2022-11-28T03:20:20.003Z,82.91
2022-11-28T03:23:34.629Z,82.22
2022-11-28T03:26:44.248Z,81.92
2022-11-28T03:29:51.722Z,82.00
2022-11-28T03:32:56.819Z,81.34
2022-11-28T03:36:14.706Z,81.88
2022-11-28T03:39:23.486Z,81.68
2022-11-28T03:42:31.217Z,81.14
2022-11-28T03:45:40.089Z,81.31
2022-11-28T03:48:47.429Z,80.98
2022-11-28T03:52:04.558Z,81.05
2022-11-28T03:55:23.594Z,81.62
2022-11-28T03:58:43.810Z,81.54
2022-11-28T04:01:58.544Z,81.33
2022-11-28T04:05:03.843Z,81.22
2022-11-28T04:08:27.147Z,81.81
2022-11-28T04:11:37.569Z,81.57
2022-11-28T04:14:47.374Z,81.31
2022-11-28T04:17:56.754Z,81.49
2022-11-28T04:21:18.014Z,81.72
2022-11-28T04:24:27.227Z,81.92
2022-11-28T04:27:36.399Z,81.51
2022-11-28T04:30:42.592Z,81.55
2022-11-28T04:33:49.643Z,81.43
2022-11-28T04:36:55.282Z,81.28
2022-11-28T04:40:00.564Z,81.27
2022-11-28T04:43:10.481Z,81.19
2022-11-28T04:46:18.438Z,80.91
2022-11-28T04:49:23.733Z,81.33
2022-11-28T04:52:45.745Z,81.69
2022-11-28T04:56:06.952Z,81.70
2022-11-28T04:59:11.402Z,80.97
2022-11-28T05:02:17.869Z,80.93
2022-11-28T05:05:25.245Z,81.32
2022-11-28T05:08:28.310Z,81.13
2022-11-28T05:11:31.154Z,81.81
2022-11-28T05:14:34.225Z,81.83
2022-11-28T05:17:42.222Z,81.71
2022-11-28T05:20:45.744Z,81.79
2022-11-28T05:23:48.580Z,81.83
2022-11-28T05:26:51.531Z,82.10
2022-11-28T05:29:53.945Z,81.87
2022-11-28T05:32:59.561Z,82.46
2022-11-28T05:36:13.669Z,82.83
2022-11-28T05:39:17.049Z,82.71
2022-11-28T05:42:19.818Z,82.73
2022-11-28T05:45:22.883Z,82.59
2022-11-28T05:48:25.784Z,82.87
2022-11-28T05:51:28.673Z,83.12
2022-11-28T05:54:31.637Z,83.12
2022-11-28T05:57:34.649Z,81.97
2022-11-28T06:00:37.313Z,81.94
2022-11-28T06:03:41.063Z,82.00
2022-11-28T06:06:43.763Z,82.12
2022-11-28T06:09:47.070Z,81.82
2022-11-28T06:12:49.762Z,82.27
2022-11-28T06:15:52.782Z,82.36
2022-11-28T06:19:01.209Z,81.80
2022-11-28T06:22:04.533Z,81.58
2022-11-28T06:25:07.239Z,81.46
2022-11-28T06:28:10.543Z,81.42
2022-11-28T06:31:25.140Z,81.08
2022-11-28T06:34:28.273Z,80.93
2022-11-28T06:37:30.717Z,81.07
2022-11-28T06:40:33.850Z,80.69
2022-11-28T06:43:36.442Z,80.57
2022-11-28T06:46:39.610Z,80.52
2022-11-28T06:49:42.542Z,80.62
2022-11-28T06:52:46.320Z,81.04
2022-11-28T06:55:48.799Z,80.35
2022-11-28T06:58:56.453Z,80.30
2022-11-28T07:02:07.199Z,80.14
2022-11-28T07:05:10.926Z,80.06
2022-11-28T07:08:13.445Z,79.20
2022-11-28T07:11:22.572Z,79.83
2022-11-28T07:14:25.237Z,79.75
2022-11-28T07:17:28.643Z,79.41
2022-11-28T07:20:31.099Z,79.44
2022-11-28T07:23:34.178Z,78.03
2022-11-28T07:26:38.122Z,77.45
2022-11-28T07:29:41.624Z,77.74
2022-11-28T07:32:44.439Z,77.63
2022-11-28T07:35:47.624Z,77.79
2022-11-28T07:38:52.206Z,77.59
2022-11-28T07:41:55.283Z,77.12
2022-11-28T07:44:57.788Z,76.10
2022-11-28T07:48:00.822Z,75.68
2022-11-28T07:51:08.881Z,74.44
2022-11-28T07:54:11.979Z,73.64
2022-11-28T07:57:14.588Z,72.37
2022-11-28T08:00:18.405Z,71.23
2022-11-28T08:03:21.407Z,71.22
2022-11-28T08:06:26.527Z,70.92
2022-11-28T08:09:29.670Z,70.10
2022-11-28T08:12:32.526Z,69.12
2022-11-28T08:15:37.477Z,68.86
2022-11-28T08:18:40.837Z,68.49
2022-11-28T08:21:43.665Z,67.33
2022-11-28T08:24:46.419Z,67.72
2022-11-28T08:27:49.118Z,66.78
2022-11-28T08:30:52.031Z,65.84
2022-11-28T08:33:56.990Z,65.53
2022-11-28T08:36:59.836Z,64.89
2022-11-28T08:40:02.618Z,64.19
2022-11-28T08:43:05.601Z,64.76
2022-11-28T08:46:14.185Z,63.38
2022-11-28T08:49:17.206Z,63.81
2022-11-28T08:52:19.958Z,64.79
2022-11-28T08:55:31.724Z,65.03
2022-11-28T08:58:35.280Z,65.87
2022-11-28T09:01:39.587Z,66.39
2022-11-28T09:04:42.603Z,66.81
2022-11-28T09:07:45.437Z,67.22
2022-11-28T09:10:48.314Z,67.02
2022-11-28T09:13:51.235Z,67.27
2022-11-28T09:16:54.291Z,66.43
2022-11-28T09:19:57.607Z,64.10
2022-11-28T09:23:00.332Z,63.67
2022-11-28T09:26:09.007Z,63.94
2022-11-28T09:29:11.751Z,62.65
2022-11-28T09:32:14.449Z,63.57
2022-11-28T09:35:18.354Z,63.71
2022-11-28T09:38:22.613Z,64.19
2022-11-28T09:41:28.336Z,64.55
2022-11-28T09:44:42.042Z,64.22
2022-11-28T09:47:47.493Z,65.00
2022-11-28T09:50:55.521Z,65.90
2022-11-28T09:54:10.401Z,65.33
2022-11-28T09:57:21.792Z,65.73
2022-11-28T10:00:35.966Z,65.55
2022-11-28T10:03:54.087Z,66.19
2022-11-28T10:07:38.728Z,66.16
2022-11-28T10:11:00.456Z,65.98
2022-11-28T10:14:16.167Z,65.54
2022-11-28T10:18:06.141Z,65.84
2022-11-28T10:21:27.030Z,66.08
2022-11-28T10:24:49.606Z,66.06
2022-11-28T10:27:52.942Z,65.49
2022-11-28T10:31:15.896Z,66.17
2022-11-28T10:34:40.218Z,66.18
2022-11-28T10:37:43.338Z,65.96
2022-11-28T10:41:13.250Z,65.90
2022-11-28T10:44:27.718Z,65.04
2022-11-28T10:47:53.545Z,65.30
2022-11-28T10:51:28.862Z,65.75
2022-11-28T10:54:43.657Z,65.93
2022-11-28T10:57:49.563Z,65.84
2022-11-28T11:00:55.408Z,66.51
2022-11-28T11:03:58.645Z,67.34
2022-11-28T11:07:30.539Z,67.48
2022-11-28T11:10:42.696Z,67.52
2022-11-28T11:14:21.150Z,67.67
2022-11-28T11:17:36.567Z,67.79
2022-11-28T11:21:15.678Z,67.71
2022-11-28T11:24:18.999Z,68.03
2022-11-28T11:27:24.079Z,68.03
2022-11-28T11:30:34.323Z,67.67
2022-11-28T11:33:38.677Z,67.83
2022-11-28T11:36:42.023Z,68.62
2022-11-28T11:39:52.643Z,68.57
2022-11-28T11:43:00.538Z,67.62
2022-11-28T11:46:10.571Z,67.01
2022-11-28T11:49:32.163Z,65.89
2022-11-28T11:52:34.719Z,65.44
2022-11-28T11:55:47.501Z,65.04
2022-11-28T11:58:54.348Z,64.96
2022-11-28T12:02:08.884Z,64.92
2022-11-28T12:05:16.360Z,64.34
2022-11-28T12:08:34.480Z,64.73
2022-11-28T12:11:46.786Z,64.45
2022-11-28T12:14:50.800Z,64.43
2022-11-28T12:17:59.064Z,64.54
2022-11-28T12:21:14.686Z,64.77
2022-11-28T12:24:28.472Z,64.38
2022-11-28T12:28:19.601Z,64.84
2022-11-28T12:31:50.219Z,64.92
2022-11-28T12:35:18.327Z,65.15
2022-11-28T12:38:42.230Z,65.20
2022-11-28T12:42:09.619Z,65.62
2022-11-28T12:45:39.658Z,65.89
2022-11-28T12:48:58.939Z,66.18
2022-11-28T12:52:20.215Z,66.09
2022-11-28T12:55:23.146Z,66.12
2022-11-28T12:58:54.419Z,66.19
2022-11-28T13:02:06.728Z,65.98
2022-11-28T13:05:33.282Z,66.01
2022-11-28T13:09:11.937Z,66.34
2022-11-28T13:12:26.132Z,66.40
2022-11-28T13:15:53.523Z,66.83
2022-11-28T13:19:14.696Z,66.79
2022-11-28T13:22:26.923Z,66.42
2022-11-28T13:25:45.316Z,66.45
2022-11-28T13:28:56.165Z,66.48
2022-11-28T13:32:23.843Z,65.99
2022-11-28T13:35:29.056Z,65.86
2022-11-28T13:39:11.941Z,66.69
2022-11-28T13:42:58.862Z,66.89
2022-11-28T13:45:45.047Z,67.22
2022-11-28T13:52:17.519Z,67.33
2022-11-28T13:55:47.014Z,67.30
2022-11-28T13:59:16.712Z,67.36
2022-11-28T14:02:34.679Z,67.86
2022-11-28T14:05:42.450Z,68.04
2022-11-28T14:08:50.003Z,68.31
2022-11-28T14:11:55.997Z,68.56
2022-11-28T14:15:27.582Z,68.69
2022-11-28T14:18:57.196Z,68.86
2022-11-28T14:22:12.955Z,68.78
2022-11-28T14:25:31.688Z,68.71
2022-11-28T14:28:38.229Z,68.70
2022-11-28T14:32:06.649Z,69.09
2022-11-28T14:35:36.253Z,69.60
2022-11-28T14:38:41.560Z,69.94
2022-11-28T14:42:02.717Z,69.85
2022-11-28T14:45:45.319Z,70.22
2022-11-28T14:49:00.695Z,70.30
2022-11-28T14:52:36.964Z,71.01
2022-11-28T14:55:32.516Z,71.26
2022-11-28T14:58:36.021Z,71.28
2022-11-28T15:02:06.200Z,71.48
2022-11-28T15:05:22.632Z,71.91
2022-11-28T15:08:32.937Z,72.13
2022-11-28T15:12:04.147Z,72.71
2022-11-28T15:15:14.338Z,72.75
2022-11-28T15:18:19.372Z,72.86
2022-11-28T15:21:23.006Z,72.92
2022-11-28T15:24:26.368Z,72.92
2022-11-28T15:27:29.071Z,73.10
2022-11-28T15:30:33.603Z,73.30
2022-11-28T15:33:39.705Z,73.35
2022-11-28T15:36:43.210Z,73.41
2022-11-28T15:39:49.070Z,73.56
2022-11-28T15:42:52.665Z,73.68
2022-11-28T15:45:59.500Z,73.76
2022-11-28T15:49:05.211Z,74.03
2022-11-28T15:52:17.497Z,74.25
2022-11-28T15:55:21.528Z,74.64
2022-11-28T15:58:31.738Z,75.03
2022-11-28T16:01:35.243Z,75.16
2022-11-28T16:04:38.946Z,75.28
2022-11-28T16:07:45.176Z,75.52
2022-11-28T16:10:48.475Z,75.58
2022-11-28T16:13:53.054Z,75.52
2022-11-28T16:16:58.336Z,75.61
2022-11-28T16:20:02.821Z,75.52
2022-11-28T16:23:11.167Z,75.59
2022-11-28T16:26:22.375Z,75.59
2022-11-28T16:29:34.521Z,75.61
2022-11-28T16:32:40.522Z,75.52
2022-11-28T16:35:43.636Z,75.33
2022-11-28T16:38:48.282Z,75.09
2022-11-28T16:42:20.125Z,74.79
2022-11-28T16:45:29.383Z,75.17
2022-11-28T16:48:38.072Z,75.17
2022-11-28T16:51:41.357Z,75.30
2022-11-28T16:54:44.420Z,75.54
2022-11-28T16:57:47.615Z,75.53
2022-11-28T17:01:00.313Z,75.58
2022-11-28T17:04:03.931Z,75.91
2022-11-28T17:07:11.037Z,75.75
2022-11-28T17:10:14.076Z,75.89
2022-11-28T17:13:17.445Z,76.37
2022-11-28T17:16:22.836Z,76.42
2022-11-28T17:19:27.093Z,76.38
2022-11-28T17:22:41.061Z,76.59
2022-11-28T17:25:44.504Z,76.72
2022-11-28T17:28:47.127Z,76.84
2022-11-28T17:31:50.288Z,76.95
2022-11-28T17:34:53.183Z,77.09
2022-11-28T17:37:56.538Z,77.13
2022-11-28T17:41:00.273Z,77.32
2022-11-28T17:44:03.842Z,77.41
2022-11-28T17:47:08.922Z,77.57
2022-11-28T17:50:12.018Z,77.59
2022-11-28T17:53:17.996Z,77.46
2022-11-28T17:56:21.413Z,77.80
2022-11-28T17:59:24.958Z,77.91
2022-11-28T18:02:28.849Z,78.11
2022-11-28T18:05:31.683Z,78.03
2022-11-28T18:08:34.588Z,78.21
2022-11-28T18:11:37.673Z,78.15
2022-11-28T18:14:40.644Z,78.16
2022-11-28T18:17:43.593Z,78.27
2022-11-28T18:20:46.506Z,78.36
2022-11-28T18:23:50.607Z,78.71
2022-11-28T18:26:53.737Z,78.83
2022-11-28T18:29:56.540Z,78.79
2022-11-28T18:32:59.372Z,78.92
2022-11-28T18:36:13.379Z,78.90
2022-11-28T18:39:17.142Z,78.98
2022-11-28T18:42:20.767Z,79.09
2022-11-28T18:45:23.833Z,79.35
2022-11-28T18:48:27.287Z,79.69
2022-11-28T18:51:32.926Z,79.84
2022-11-28T18:54:38.494Z,80.00
2022-11-28T18:57:41.504Z,80.13
2022-11-28T19:00:44.451Z,80.24
2022-11-28T19:03:53.491Z,80.34
2022-11-28T19:06:56.509Z,80.53
2022-11-28T19:10:00.305Z,80.41
2022-11-28T19:13:03.507Z,80.47
2022-11-28T19:16:07.132Z,80.43
2022-11-28T19:19:09.935Z,80.53
2022-11-28T19:22:14.800Z,81.05
2022-11-28T19:25:17.794Z,80.87
2022-11-28T19:28:20.940Z,80.85
2022-11-28T19:31:27.392Z,80.94
2022-11-28T19:34:30.558Z,81.04
2022-11-28T19:37:33.695Z,81.14
2022-11-28T19:40:36.557Z,81.08
2022-11-28T19:43:40.051Z,81.04
2022-11-28T19:46:43.693Z,81.03
2022-11-28T19:49:47.715Z,81.15
2022-11-28T19:52:50.612Z,81.25
2022-11-28T19:55:54.327Z,81.16
2022-11-28T19:58:57.324Z,81.07
2022-11-28T20:02:01.017Z,81.01
2022-11-28T20:05:04.352Z,80.82
2022-11-28T20:08:07.876Z,80.82
2022-11-28T20:11:11.918Z,81.23
2022-11-28T20:14:15.494Z,81.65
2022-11-28T20:17:18.495Z,81.81
2022-11-28T20:20:21.125Z,82.01
2022-11-28T20:23:24.128Z,82.08
2022-11-28T20:26:27.104Z,81.84
2022-11-28T20:29:30.330Z,82.02
2022-11-28T20:32:32.826Z,81.92
2022-11-28T20:35:35.983Z,82.01
2022-11-28T20:38:38.422Z,81.99
2022-11-28T20:41:41.499Z,81.96
2022-11-28T20:44:43.967Z,81.91
2022-11-28T20:47:49.956Z,82.00
2022-11-28T20:50:52.755Z,82.09
2022-11-28T20:53:57.910Z,82.02
2022-11-28T21:00:26.556Z,81.78
2022-11-28T21:03:29.695Z,81.89
2022-11-28T21:06:33.416Z,82.00
2022-11-28T21:09:35.847Z,82.08
2022-11-28T21:12:38.992Z,82.04
2022-11-28T21:15:45.513Z,81.86
2022-11-28T21:18:51.983Z,81.69
2022-11-28T21:21:54.494Z,81.65
2022-11-28T21:24:57.614Z,81.25
2022-11-28T21:28:00.106Z,81.16
2022-11-28T21:31:08.543Z,80.92
2022-11-28T21:34:16.754Z,80.46
2022-11-28T21:37:20.087Z,80.72
2022-11-28T21:40:22.549Z,80.62
2022-11-28T21:43:27.385Z,80.52
2022-11-28T21:46:30.042Z,80.36
2022-11-28T21:49:33.244Z,80.37
2022-11-28T21:52:35.746Z,80.32
2022-11-28T21:55:38.864Z,80.45
2022-11-28T21:58:41.439Z,80.65
2022-11-28T22:01:44.599Z,80.46
2022-11-28T22:04:47.746Z,80.45
2022-11-28T22:07:50.599Z,80.37
2022-11-28T22:10:53.469Z,80.09
2022-11-28T22:13:56.318Z,79.81
2022-11-28T22:16:59.103Z,79.27
2022-11-28T22:20:02.067Z,79.06
2022-11-28T22:23:05.074Z,78.67
2022-11-28T22:26:09.012Z,78.59
2022-11-28T22:29:11.785Z,78.46
2022-11-28T22:32:16.575Z,78.26
2022-11-28T22:35:19.369Z,78.58
2022-11-28T22:38:22.222Z,78.71
2022-11-28T22:41:29.220Z,78.81
2022-11-28T22:44:34.085Z,78.13
2022-11-28T22:47:37.247Z,78.31
2022-11-28T22:50:40.634Z,78.55
2022-11-28T22:53:43.789Z,78.42
2022-11-28T22:56:46.600Z,78.75
2022-11-28T22:59:49.387Z,78.96
2022-11-28T23:02:52.576Z,79.06
2022-11-28T23:05:55.802Z,79.02
2022-11-28T23:09:00.101Z,79.14
2022-11-28T23:12:03.501Z,79.42
2022-11-28T23:15:07.499Z,79.25
2022-11-28T23:18:10.292Z,79.49
2022-11-28T23:21:14.604Z,79.46
2022-11-28T23:24:22.013Z,79.52
2022-11-28T23:27:24.776Z,79.66
2022-11-28T23:30:28.904Z,79.75
2022-11-28T23:33:33.306Z,80.19
2022-11-28T23:36:46.752Z,80.24
2022-11-28T23:39:49.562Z,80.37
2022-11-28T23:42:52.957Z,80.41
2022-11-28T23:45:55.853Z,80.26
2022-11-28T23:48:58.918Z,80.50
2022-11-28T23:52:01.740Z,80.70
2022-11-28T23:55:04.882Z,80.78
2022-11-28T23:58:07.687Z,80.98
